sensor_id;sensor_type;location;lat;lon;timestamp;P1;durP1;ratioP1;P2;durP2;ratioP2
58466;SDS011;44255;49.244;7.726;2022-08-21T00:01:10;8.97;;;2.77;;
58466;SDS011;44255;49.244;7.726;2022-08-21T00:03:38;4.75;;;2.53;;
58466;SDS011;44255;49.244;7.726;2022-08-21T00:06:03;5.30;;;2.97;;
58466;SDS011;44255;49.244;7.726;2022-08-21T00:08:29;4.60;;;2.65;;
58466;SDS011;44255;49.244;7.726;2022-08-21T00:10:54;4.67;;;2.90;;
58466;SDS011;44255;49.244;7.726;2022-08-21T00:13:19;5.27;;;2.43;;
58466;SDS011;44255;49.244;7.726;2022-08-21T00:15:46;7.05;;;2.47;;
58466;SDS011;44255;49.244;7.726;2022-08-21T00:18:12;5.32;;;2.45;;
58466;SDS011;44255;49.244;7.726;2022-08-21T00:20:38;4.80;;;2.55;;
58466;SDS011;44255;49.244;7.726;2022-08-21T00:23:07;7.43;;;2.60;;
58466;SDS011;44255;49.244;7.726;2022-08-21T00:25:34;3.95;;;2.65;;
58466;SDS011;44255;49.244;7.726;2022-08-21T00:27:59;4.50;;;2.45;;
58466;SDS011;44255;49.244;7.726;2022-08-21T00:30:27;4.70;;;2.53;;
58466;SDS011;44255;49.244;7.726;2022-08-21T00:35:21;3.90;;;2.47;;
58466;SDS011;44255;49.244;7.726;2022-08-21T00:37:48;7.95;;;3.10;;
58466;SDS011;44255;49.244;7.726;2022-08-21T00:40:15;6.87;;;3.13;;
58466;SDS011;44255;49.244;7.726;2022-08-21T00:42:43;7.07;;;2.35;;
58466;SDS011;44255;49.244;7.726;2022-08-21T00:45:09;6.97;;;2.58;;
58466;SDS011;44255;49.244;7.726;2022-08-21T00:47:35;5.82;;;2.50;;
58466;SDS011;44255;49.244;7.726;2022-08-21T00:50:01;5.30;;;2.28;;
58466;SDS011;44255;49.244;7.726;2022-08-21T00:52:28;5.00;;;2.67;;
58466;SDS011;44255;49.244;7.726;2022-08-21T00:54:56;5.38;;;2.70;;
58466;SDS011;44255;49.244;7.726;2022-08-21T00:57:26;3.80;;;2.42;;
58466;SDS011;44255;49.244;7.726;2022-08-21T00:59:56;5.10;;;2.63;;
58466;SDS011;44255;49.244;7.726;2022-08-21T01:02:24;3.95;;;2.72;;
58466;SDS011;44255;49.244;7.726;2022-08-21T01:04:49;5.33;;;2.70;;
58466;SDS011;44255;49.244;7.726;2022-08-21T01:07:15;5.10;;;2.60;;
58466;SDS011;44255;49.244;7.726;2022-08-21T01:09:40;4.65;;;2.63;;
58466;SDS011;44255;49.244;7.726;2022-08-21T01:14:32;8.77;;;2.80;;
58466;SDS011;44255;49.244;7.726;2022-08-21T01:16:58;4.10;;;2.60;;
58466;SDS011;44255;49.244;7.726;2022-08-21T01:19:25;5.05;;;2.80;;
58466;SDS011;44255;49.244;7.726;2022-08-21T01:21:51;5.82;;;2.60;;
58466;SDS011;44255;49.244;7.726;2022-08-21T01:24:18;4.68;;;3.03;;
58466;SDS011;44255;49.244;7.726;2022-08-21T01:26:44;4.75;;;2.78;;
58466;SDS011;44255;49.244;7.726;2022-08-21T01:31:52;5.88;;;2.70;;
58466;SDS011;44255;49.244;7.726;2022-08-21T01:34:18;7.17;;;2.73;;
58466;SDS011;44255;49.244;7.726;2022-08-21T01:36:44;5.80;;;3.03;;
58466;SDS011;44255;49.244;7.726;2022-08-21T01:39:11;3.60;;;2.58;;
58466;SDS011;44255;49.244;7.726;2022-08-21T01:41:36;4.88;;;2.55;;
58466;SDS011;44255;49.244;7.726;2022-08-21T01:44:02;5.53;;;2.77;;
58466;SDS011;44255;49.244;7.726;2022-08-21T01:46:28;4.95;;;2.72;;
58466;SDS011;44255;49.244;7.726;2022-08-21T01:48:53;5.38;;;3.17;;
58466;SDS011;44255;49.244;7.726;2022-08-21T01:51:19;4.47;;;2.70;;
58466;SDS011;44255;49.244;7.726;2022-08-21T01:53:44;3.73;;;2.83;;
58466;SDS011;44255;49.244;7.726;2022-08-21T01:56:10;7.90;;;3.27;;
58466;SDS011;44255;49.244;7.726;2022-08-21T01:58:38;7.70;;;3.05;;
58466;SDS011;44255;49.244;7.726;2022-08-21T02:01:07;5.22;;;3.15;;
58466;SDS011;44255;49.244;7.726;2022-08-21T02:03:34;4.30;;;2.80;;
58466;SDS011;44255;49.244;7.726;2022-08-21T02:05:59;5.68;;;3.25;;
58466;SDS011;44255;49.244;7.726;2022-08-21T02:08:25;6.17;;;3.07;;
58466;SDS011;44255;49.244;7.726;2022-08-21T02:10:50;4.60;;;2.77;;
58466;SDS011;44255;49.244;7.726;2022-08-21T02:13:16;6.00;;;2.70;;
58466;SDS011;44255;49.244;7.726;2022-08-21T02:18:08;5.32;;;2.75;;
58466;SDS011;44255;49.244;7.726;2022-08-21T02:20:35;5.17;;;2.70;;
58466;SDS011;44255;49.244;7.726;2022-08-21T02:23:03;7.10;;;3.03;;
58466;SDS011;44255;49.244;7.726;2022-08-21T02:25:30;7.00;;;2.80;;
58466;SDS011;44255;49.244;7.726;2022-08-21T02:27:57;5.55;;;3.25;;
58466;SDS011;44255;49.244;7.726;2022-08-21T02:30:26;6.18;;;3.20;;
58466;SDS011;44255;49.244;7.726;2022-08-21T02:32:53;6.95;;;3.25;;
58466;SDS011;44255;49.244;7.726;2022-08-21T02:35:19;6.03;;;3.17;;
58466;SDS011;44255;49.244;7.726;2022-08-21T02:40:20;7.22;;;3.20;;
58466;SDS011;44255;49.244;7.726;2022-08-21T02:42:47;5.60;;;3.10;;
58466;SDS011;44255;49.244;7.726;2022-08-21T02:45:13;7.77;;;3.27;;
58466;SDS011;44255;49.244;7.726;2022-08-21T02:47:39;6.15;;;3.00;;
58466;SDS011;44255;49.244;7.726;2022-08-21T02:50:06;7.90;;;3.28;;
58466;SDS011;44255;49.244;7.726;2022-08-21T02:52:32;5.82;;;3.20;;
58466;SDS011;44255;49.244;7.726;2022-08-21T02:54:58;6.18;;;3.42;;
58466;SDS011;44255;49.244;7.726;2022-08-21T02:57:24;5.93;;;3.10;;
58466;SDS011;44255;49.244;7.726;2022-08-21T02:59:49;5.73;;;3.00;;
58466;SDS011;44255;49.244;7.726;2022-08-21T03:02:14;9.43;;;3.30;;
58466;SDS011;44255;49.244;7.726;2022-08-21T03:04:39;4.67;;;3.30;;
58466;SDS011;44255;49.244;7.726;2022-08-21T03:07:05;9.77;;;3.50;;
58466;SDS011;44255;49.244;7.726;2022-08-21T03:09:30;5.50;;;3.23;;
58466;SDS011;44255;49.244;7.726;2022-08-21T03:11:55;4.37;;;2.97;;
58466;SDS011;44255;49.244;7.726;2022-08-21T03:14:20;5.03;;;3.23;;
58466;SDS011;44255;49.244;7.726;2022-08-21T03:16:46;6.67;;;3.10;;
58466;SDS011;44255;49.244;7.726;2022-08-21T03:19:11;5.60;;;3.03;;
58466;SDS011;44255;49.244;7.726;2022-08-21T03:21:37;6.47;;;3.65;;
58466;SDS011;44255;49.244;7.726;2022-08-21T03:24:03;7.43;;;3.60;;
58466;SDS011;44255;49.244;7.726;2022-08-21T03:28:54;6.38;;;3.05;;
58466;SDS011;44255;49.244;7.726;2022-08-21T03:31:21;5.10;;;3.30;;
58466;SDS011;44255;49.244;7.726;2022-08-21T03:33:46;6.70;;;3.67;;
58466;SDS011;44255;49.244;7.726;2022-08-21T03:36:11;7.50;;;3.13;;
58466;SDS011;44255;49.244;7.726;2022-08-21T03:38:38;7.03;;;3.83;;
58466;SDS011;44255;49.244;7.726;2022-08-21T03:41:04;6.18;;;3.40;;
58466;SDS011;44255;49.244;7.726;2022-08-21T03:43:30;10.05;;;3.90;;
58466;SDS011;44255;49.244;7.726;2022-08-21T03:45:57;5.20;;;3.00;;
58466;SDS011;44255;49.244;7.726;2022-08-21T03:48:23;4.72;;;3.17;;
58466;SDS011;44255;49.244;7.726;2022-08-21T03:50:48;8.33;;;3.33;;
58466;SDS011;44255;49.244;7.726;2022-08-21T03:53:17;5.53;;;3.47;;
58466;SDS011;44255;49.244;7.726;2022-08-21T03:55:42;8.27;;;3.33;;
58466;SDS011;44255;49.244;7.726;2022-08-21T03:58:08;6.13;;;2.90;;
58466;SDS011;44255;49.244;7.726;2022-08-21T04:00:34;4.07;;;2.90;;
58466;SDS011;44255;49.244;7.726;2022-08-21T04:02:59;6.87;;;3.30;;
58466;SDS011;44255;49.244;7.726;2022-08-21T04:05:25;9.40;;;3.67;;
58466;SDS011;44255;49.244;7.726;2022-08-21T04:07:57;5.55;;;3.30;;
58466;SDS011;44255;49.244;7.726;2022-08-21T04:10:23;6.45;;;3.35;;
58466;SDS011;44255;49.244;7.726;2022-08-21T04:12:50;6.68;;;3.38;;
58466;SDS011;44255;49.244;7.726;2022-08-21T04:15:17;6.25;;;3.45;;
58466;SDS011;44255;49.244;7.726;2022-08-21T04:17:42;5.85;;;3.42;;
58466;SDS011;44255;49.244;7.726;2022-08-21T04:20:08;6.37;;;3.30;;
58466;SDS011;44255;49.244;7.726;2022-08-21T04:22:33;5.05;;;3.42;;
58466;SDS011;44255;49.244;7.726;2022-08-21T04:24:59;4.73;;;3.30;;
58466;SDS011;44255;49.244;7.726;2022-08-21T04:27:24;5.53;;;3.30;;
58466;SDS011;44255;49.244;7.726;2022-08-21T04:29:49;6.47;;;3.77;;
58466;SDS011;44255;49.244;7.726;2022-08-21T04:32:21;6.73;;;3.30;;
58466;SDS011;44255;49.244;7.726;2022-08-21T04:34:47;5.57;;;3.00;;
58466;SDS011;44255;49.244;7.726;2022-08-21T04:37:12;5.30;;;3.40;;
58466;SDS011;44255;49.244;7.726;2022-08-21T04:39:40;6.53;;;3.47;;
58466;SDS011;44255;49.244;7.726;2022-08-21T04:42:05;6.70;;;3.33;;
58466;SDS011;44255;49.244;7.726;2022-08-21T04:44:31;8.65;;;3.55;;
58466;SDS011;44255;49.244;7.726;2022-08-21T04:46:56;7.00;;;3.67;;
58466;SDS011;44255;49.244;7.726;2022-08-21T04:49:22;6.78;;;3.75;;
58466;SDS011;44255;49.244;7.726;2022-08-21T04:51:48;5.37;;;3.43;;
58466;SDS011;44255;49.244;7.726;2022-08-21T04:54:17;5.03;;;3.38;;
58466;SDS011;44255;49.244;7.726;2022-08-21T04:56:47;6.18;;;3.90;;
58466;SDS011;44255;49.244;7.726;2022-08-21T04:59:17;6.47;;;3.95;;
58466;SDS011;44255;49.244;7.726;2022-08-21T05:01:47;5.07;;;3.33;;
58466;SDS011;44255;49.244;7.726;2022-08-21T05:04:14;5.95;;;3.22;;
58466;SDS011;44255;49.244;7.726;2022-08-21T05:06:42;7.03;;;3.40;;
58466;SDS011;44255;49.244;7.726;2022-08-21T05:09:11;7.60;;;3.80;;
58466;SDS011;44255;49.244;7.726;2022-08-21T05:11:39;5.55;;;4.00;;
58466;SDS011;44255;49.244;7.726;2022-08-21T05:14:05;5.10;;;3.15;;
58466;SDS011;44255;49.244;7.726;2022-08-21T05:16:30;7.67;;;4.30;;
58466;SDS011;44255;49.244;7.726;2022-08-21T05:18:55;7.87;;;3.70;;
58466;SDS011;44255;49.244;7.726;2022-08-21T05:21:21;7.30;;;3.97;;
58466;SDS011;44255;49.244;7.726;2022-08-21T05:23:46;8.43;;;3.83;;
58466;SDS011;44255;49.244;7.726;2022-08-21T05:26:12;7.75;;;4.30;;
58466;SDS011;44255;49.244;7.726;2022-08-21T05:28:37;7.10;;;3.87;;
58466;SDS011;44255;49.244;7.726;2022-08-21T05:31:02;7.53;;;3.97;;
58466;SDS011;44255;49.244;7.726;2022-08-21T05:33:27;6.03;;;4.17;;
58466;SDS011;44255;49.244;7.726;2022-08-21T05:35:53;5.93;;;4.13;;
58466;SDS011;44255;49.244;7.726;2022-08-21T05:38:23;6.38;;;3.30;;
58466;SDS011;44255;49.244;7.726;2022-08-21T05:40:49;10.68;;;4.00;;
58466;SDS011;44255;49.244;7.726;2022-08-21T05:43:15;6.23;;;3.40;;
58466;SDS011;44255;49.244;7.726;2022-08-21T05:45:40;5.90;;;3.80;;
58466;SDS011;44255;49.244;7.726;2022-08-21T05:48:07;7.15;;;3.78;;
58466;SDS011;44255;49.244;7.726;2022-08-21T05:50:33;5.88;;;3.45;;
58466;SDS011;44255;49.244;7.726;2022-08-21T05:52:59;5.57;;;3.88;;
58466;SDS011;44255;49.244;7.726;2022-08-21T05:55:25;7.77;;;3.80;;
58466;SDS011;44255;49.244;7.726;2022-08-21T05:57:50;4.73;;;3.70;;
58466;SDS011;44255;49.244;7.726;2022-08-21T06:00:15;6.00;;;3.83;;
58466;SDS011;44255;49.244;7.726;2022-08-21T06:02:41;6.78;;;3.70;;
58466;SDS011;44255;49.244;7.726;2022-08-21T06:05:06;5.43;;;3.53;;
58466;SDS011;44255;49.244;7.726;2022-08-21T06:07:32;4.88;;;3.50;;
58466;SDS011;44255;49.244;7.726;2022-08-21T06:09:57;8.20;;;3.97;;
58466;SDS011;44255;49.244;7.726;2022-08-21T06:12:22;6.80;;;3.53;;
58466;SDS011;44255;49.244;7.726;2022-08-21T06:14:48;5.70;;;3.50;;
58466;SDS011;44255;49.244;7.726;2022-08-21T06:17:15;5.70;;;3.85;;
58466;SDS011;44255;49.244;7.726;2022-08-21T06:19:40;7.18;;;3.72;;
58466;SDS011;44255;49.244;7.726;2022-08-21T06:22:06;9.10;;;3.93;;
58466;SDS011;44255;49.244;7.726;2022-08-21T06:24:31;6.07;;;3.50;;
58466;SDS011;44255;49.244;7.726;2022-08-21T06:26:57;11.30;;;3.67;;
58466;SDS011;44255;49.244;7.726;2022-08-21T06:29:22;5.83;;;3.63;;
58466;SDS011;44255;49.244;7.726;2022-08-21T06:31:49;7.88;;;3.45;;
58466;SDS011;44255;49.244;7.726;2022-08-21T06:34:16;7.57;;;3.92;;
58466;SDS011;44255;49.244;7.726;2022-08-21T06:36:42;6.30;;;3.83;;
58466;SDS011;44255;49.244;7.726;2022-08-21T06:39:07;6.78;;;3.80;;
58466;SDS011;44255;49.244;7.726;2022-08-21T06:41:32;5.37;;;4.00;;
58466;SDS011;44255;49.244;7.726;2022-08-21T06:43:59;8.80;;;4.57;;
58466;SDS011;44255;49.244;7.726;2022-08-21T06:46:25;8.85;;;3.65;;
58466;SDS011;44255;49.244;7.726;2022-08-21T06:48:52;7.53;;;3.65;;
58466;SDS011;44255;49.244;7.726;2022-08-21T06:51:17;5.37;;;3.57;;
58466;SDS011;44255;49.244;7.726;2022-08-21T06:53:43;7.18;;;3.72;;
58466;SDS011;44255;49.244;7.726;2022-08-21T06:56:09;7.78;;;3.92;;
58466;SDS011;44255;49.244;7.726;2022-08-21T06:58:34;5.63;;;3.60;;
58466;SDS011;44255;49.244;7.726;2022-08-21T07:00:59;9.03;;;3.47;;
58466;SDS011;44255;49.244;7.726;2022-08-21T07:03:27;6.22;;;3.17;;
58466;SDS011;44255;49.244;7.726;2022-08-21T07:05:54;7.90;;;3.63;;
58466;SDS011;44255;49.244;7.726;2022-08-21T07:08:20;10.95;;;4.03;;
58466;SDS011;44255;49.244;7.726;2022-08-21T07:10:46;5.15;;;3.50;;
58466;SDS011;44255;49.244;7.726;2022-08-21T07:13:13;7.18;;;3.10;;
58466;SDS011;44255;49.244;7.726;2022-08-21T07:15:38;7.63;;;3.58;;
58466;SDS011;44255;49.244;7.726;2022-08-21T07:18:04;7.10;;;3.90;;
58466;SDS011;44255;49.244;7.726;2022-08-21T07:20:30;6.00;;;2.80;;
58466;SDS011;44255;49.244;7.726;2022-08-21T07:22:59;6.45;;;3.45;;
58466;SDS011;44255;49.244;7.726;2022-08-21T07:25:28;8.45;;;3.00;;
58466;SDS011;44255;49.244;7.726;2022-08-21T07:27:53;7.60;;;3.37;;
58466;SDS011;44255;49.244;7.726;2022-08-21T07:30:18;9.33;;;4.53;;
58466;SDS011;44255;49.244;7.726;2022-08-21T07:32:44;7.35;;;4.82;;
58466;SDS011;44255;49.244;7.726;2022-08-21T07:35:10;8.68;;;4.38;;
58466;SDS011;44255;49.244;7.726;2022-08-21T07:37:35;8.82;;;4.05;;
58466;SDS011;44255;49.244;7.726;2022-08-21T07:40:01;10.20;;;4.07;;
58466;SDS011;44255;49.244;7.726;2022-08-21T07:42:27;6.43;;;3.42;;
58466;SDS011;44255;49.244;7.726;2022-08-21T07:44:54;8.60;;;3.20;;
58466;SDS011;44255;49.244;7.726;2022-08-21T07:47:20;5.85;;;3.10;;
58466;SDS011;44255;49.244;7.726;2022-08-21T07:49:45;7.57;;;3.03;;
58466;SDS011;44255;49.244;7.726;2022-08-21T07:52:11;6.10;;;3.08;;
58466;SDS011;44255;49.244;7.726;2022-08-21T07:54:36;11.87;;;3.23;;
58466;SDS011;44255;49.244;7.726;2022-08-21T07:57:01;6.80;;;3.03;;
58466;SDS011;44255;49.244;7.726;2022-08-21T07:59:27;8.20;;;2.85;;
58466;SDS011;44255;49.244;7.726;2022-08-21T08:01:53;9.65;;;2.88;;
58466;SDS011;44255;49.244;7.726;2022-08-21T08:04:18;8.97;;;2.83;;
58466;SDS011;44255;49.244;7.726;2022-08-21T08:06:43;6.27;;;2.53;;
58466;SDS011;44255;49.244;7.726;2022-08-21T08:09:09;6.77;;;2.40;;
58466;SDS011;44255;49.244;7.726;2022-08-21T08:11:35;7.10;;;2.70;;
58466;SDS011;44255;49.244;7.726;2022-08-21T08:14:02;9.85;;;2.67;;
58466;SDS011;44255;49.244;7.726;2022-08-21T08:16:28;9.18;;;2.95;;
58466;SDS011;44255;49.244;7.726;2022-08-21T08:18:54;8.73;;;2.60;;
58466;SDS011;44255;49.244;7.726;2022-08-21T08:23:46;5.65;;;2.42;;
58466;SDS011;44255;49.244;7.726;2022-08-21T08:26:11;7.50;;;2.67;;
58466;SDS011;44255;49.244;7.726;2022-08-21T08:28:36;9.53;;;3.00;;
58466;SDS011;44255;49.244;7.726;2022-08-21T08:31:02;4.60;;;2.20;;
58466;SDS011;44255;49.244;7.726;2022-08-21T08:33:27;8.25;;;2.65;;
58466;SDS011;44255;49.244;7.726;2022-08-21T08:35:53;6.27;;;2.60;;
58466;SDS011;44255;49.244;7.726;2022-08-21T08:38:19;7.80;;;2.50;;
58466;SDS011;44255;49.244;7.726;2022-08-21T08:40:55;14.15;;;2.60;;
58466;SDS011;44255;49.244;7.726;2022-08-21T08:46:01;11.95;;;3.00;;
58466;SDS011;44255;49.244;7.726;2022-08-21T08:51:12;12.30;;;2.85;;
58466;SDS011;44255;49.244;7.726;2022-08-21T08:53:51;11.85;;;2.67;;
58466;SDS011;44255;49.244;7.726;2022-08-21T08:56:22;6.53;;;2.50;;
58466;SDS011;44255;49.244;7.726;2022-08-21T08:58:51;11.95;;;2.97;;
58466;SDS011;44255;49.244;7.726;2022-08-21T09:01:18;6.07;;;2.58;;
58466;SDS011;44255;49.244;7.726;2022-08-21T09:03:45;13.93;;;2.80;;
58466;SDS011;44255;49.244;7.726;2022-08-21T09:06:26;14.60;;;2.78;;
58466;SDS011;44255;49.244;7.726;2022-08-21T09:09:03;9.20;;;2.70;;
58466;SDS011;44255;49.244;7.726;2022-08-21T09:14:33;8.57;;;2.72;;
58466;SDS011;44255;49.244;7.726;2022-08-21T09:27:33;6.78;;;3.03;;
58466;SDS011;44255;49.244;7.726;2022-08-21T09:29:58;8.48;;;2.78;;
58466;SDS011;44255;49.244;7.726;2022-08-21T09:32:25;9.77;;;2.77;;
58466;SDS011;44255;49.244;7.726;2022-08-21T09:35:02;8.32;;;3.15;;
58466;SDS011;44255;49.244;7.726;2022-08-21T09:37:31;10.15;;;2.63;;
58466;SDS011;44255;49.244;7.726;2022-08-21T09:40:00;11.10;;;2.80;;
58466;SDS011;44255;49.244;7.726;2022-08-21T09:42:28;8.00;;;2.72;;
58466;SDS011;44255;49.244;7.726;2022-08-21T09:45:05;7.28;;;2.70;;
58466;SDS011;44255;49.244;7.726;2022-08-21T09:47:31;10.23;;;2.75;;
58466;SDS011;44255;49.244;7.726;2022-08-21T09:49:56;7.17;;;2.73;;
58466;SDS011;44255;49.244;7.726;2022-08-21T09:52:32;7.28;;;2.53;;
58466;SDS011;44255;49.244;7.726;2022-08-21T09:54:57;9.67;;;2.73;;
58466;SDS011;44255;49.244;7.726;2022-08-21T09:57:24;6.70;;;2.10;;
58466;SDS011;44255;49.244;7.726;2022-08-21T10:00:24;9.23;;;2.63;;
58466;SDS011;44255;49.244;7.726;2022-08-21T10:02:54;7.10;;;2.50;;
58466;SDS011;44255;49.244;7.726;2022-08-21T10:05:33;6.50;;;2.20;;
58466;SDS011;44255;49.244;7.726;2022-08-21T10:07:58;10.27;;;2.53;;
58466;SDS011;44255;49.244;7.726;2022-08-21T10:10:26;7.03;;;2.90;;
58466;SDS011;44255;49.244;7.726;2022-08-21T10:18:15;11.27;;;2.90;;
58466;SDS011;44255;49.244;7.726;2022-08-21T10:20:52;5.80;;;2.42;;
58466;SDS011;44255;49.244;7.726;2022-08-21T10:25:58;6.10;;;2.30;;
58466;SDS011;44255;49.244;7.726;2022-08-21T10:28:37;8.00;;;2.35;;
58466;SDS011;44255;49.244;7.726;2022-08-21T10:37:07;6.95;;;2.13;;
58466;SDS011;44255;49.244;7.726;2022-08-21T10:40:24;7.70;;;2.33;;
58466;SDS011;44255;49.244;7.726;2022-08-21T10:42:39;5.88;;;2.38;;
58466;SDS011;44255;49.244;7.726;2022-08-21T10:45:36;5.05;;;1.63;;
58466;SDS011;44255;49.244;7.726;2022-08-21T10:48:15;3.85;;;1.77;;
58466;SDS011;44255;49.244;7.726;2022-08-21T10:51:13;5.45;;;1.75;;
58466;SDS011;44255;49.244;7.726;2022-08-21T10:53:50;9.77;;;2.03;;
58466;SDS011;44255;49.244;7.726;2022-08-21T10:56:29;5.70;;;2.10;;
58466;SDS011;44255;49.244;7.726;2022-08-21T11:01:50;5.13;;;2.00;;
58466;SDS011;44255;49.244;7.726;2022-08-21T11:04:25;7.25;;;1.95;;
58466;SDS011;44255;49.244;7.726;2022-08-21T11:06:59;5.35;;;2.10;;
58466;SDS011;44255;49.244;7.726;2022-08-21T11:09:29;6.07;;;2.15;;
58466;SDS011;44255;49.244;7.726;2022-08-21T11:12:00;8.23;;;2.20;;
58466;SDS011;44255;49.244;7.726;2022-08-21T11:17:21;8.32;;;1.98;;
58466;SDS011;44255;49.244;7.726;2022-08-21T11:19:59;7.03;;;2.15;;
58466;SDS011;44255;49.244;7.726;2022-08-21T11:22:38;8.80;;;2.45;;
58466;SDS011;44255;49.244;7.726;2022-08-21T11:25:14;8.97;;;2.40;;
58466;SDS011;44255;49.244;7.726;2022-08-21T11:27:50;6.20;;;1.85;;
58466;SDS011;44255;49.244;7.726;2022-08-21T11:38:46;5.35;;;1.90;;
58466;SDS011;44255;49.244;7.726;2022-08-21T11:41:28;5.55;;;2.00;;
58466;SDS011;44255;49.244;7.726;2022-08-21T11:49:18;5.22;;;2.08;;
58466;SDS011;44255;49.244;7.726;2022-08-21T11:51:53;6.18;;;2.03;;
58466;SDS011;44255;49.244;7.726;2022-08-21T11:54:37;4.90;;;2.03;;
58466;SDS011;44255;49.244;7.726;2022-08-21T11:57:17;5.65;;;2.00;;
58466;SDS011;44255;49.244;7.726;2022-08-21T12:00:01;6.45;;;2.25;;
58466;SDS011;44255;49.244;7.726;2022-08-21T12:02:29;4.80;;;2.03;;
58466;SDS011;44255;49.244;7.726;2022-08-21T12:05:00;4.97;;;2.22;;
58466;SDS011;44255;49.244;7.726;2022-08-21T12:07:36;10.63;;;2.63;;
58466;SDS011;44255;49.244;7.726;2022-08-21T12:10:08;7.00;;;1.85;;
58466;SDS011;44255;49.244;7.726;2022-08-21T12:12:37;6.85;;;1.90;;
58466;SDS011;44255;49.244;7.726;2022-08-21T12:17:54;7.63;;;2.13;;
58466;SDS011;44255;49.244;7.726;2022-08-21T12:25:37;4.28;;;1.70;;
58466;SDS011;44255;49.244;7.726;2022-08-21T12:28:15;3.72;;;1.60;;
58466;SDS011;44255;49.244;7.726;2022-08-21T12:30:46;3.35;;;1.75;;
58466;SDS011;44255;49.244;7.726;2022-08-21T12:36:00;3.88;;;1.70;;
58466;SDS011;44255;49.244;7.726;2022-08-21T12:38:32;4.97;;;1.95;;
58466;SDS011;44255;49.244;7.726;2022-08-21T12:41:14;3.70;;;1.85;;
58466;SDS011;44255;49.244;7.726;2022-08-21T12:43:46;6.88;;;2.03;;
58466;SDS011;44255;49.244;7.726;2022-08-21T12:46:22;6.03;;;2.03;;
58466;SDS011;44255;49.244;7.726;2022-08-21T12:49:00;5.18;;;2.00;;
58466;SDS011;44255;49.244;7.726;2022-08-21T12:51:45;4.63;;;1.70;;
58466;SDS011;44255;49.244;7.726;2022-08-21T12:54:21;5.40;;;2.00;;
58466;SDS011;44255;49.244;7.726;2022-08-21T12:56:55;4.50;;;2.00;;
58466;SDS011;44255;49.244;7.726;2022-08-21T12:59:21;8.23;;;2.10;;
58466;SDS011;44255;49.244;7.726;2022-08-21T13:04:18;3.83;;;1.93;;
58466;SDS011;44255;49.244;7.726;2022-08-21T13:06:47;5.45;;;1.90;;
58466;SDS011;44255;49.244;7.726;2022-08-21T13:09:18;5.05;;;1.90;;
58466;SDS011;44255;49.244;7.726;2022-08-21T13:11:48;3.88;;;1.95;;
58466;SDS011;44255;49.244;7.726;2022-08-21T13:17:00;6.18;;;1.95;;
58466;SDS011;44255;49.244;7.726;2022-08-21T13:19:28;3.42;;;1.70;;
58466;SDS011;44255;49.244;7.726;2022-08-21T13:21:54;3.40;;;1.58;;
58466;SDS011;44255;49.244;7.726;2022-08-21T13:26:46;4.57;;;1.65;;
58466;SDS011;44255;49.244;7.726;2022-08-21T13:29:14;5.80;;;2.10;;
58466;SDS011;44255;49.244;7.726;2022-08-21T13:31:46;5.85;;;1.75;;
58466;SDS011;44255;49.244;7.726;2022-08-21T13:34:14;4.13;;;1.73;;
58466;SDS011;44255;49.244;7.726;2022-08-21T13:36:42;5.75;;;1.58;;
58466;SDS011;44255;49.244;7.726;2022-08-21T13:39:09;3.42;;;1.52;;
58466;SDS011;44255;49.244;7.726;2022-08-21T13:41:38;6.40;;;1.77;;
58466;SDS011;44255;49.244;7.726;2022-08-21T13:46:46;5.88;;;1.80;;
58466;SDS011;44255;49.244;7.726;2022-08-21T13:49:15;3.53;;;1.77;;
58466;SDS011;44255;49.244;7.726;2022-08-21T13:51:43;7.45;;;2.08;;
58466;SDS011;44255;49.244;7.726;2022-08-21T13:54:23;3.53;;;1.92;;
58466;SDS011;44255;49.244;7.726;2022-08-21T13:56:54;4.70;;;1.90;;
58466;SDS011;44255;49.244;7.726;2022-08-21T13:59:24;7.35;;;2.22;;
58466;SDS011;44255;49.244;7.726;2022-08-21T14:01:52;4.57;;;2.08;;
58466;SDS011;44255;49.244;7.726;2022-08-21T14:04:31;5.60;;;2.20;;
58466;SDS011;44255;49.244;7.726;2022-08-21T14:06:59;3.70;;;1.80;;
58466;SDS011;44255;49.244;7.726;2022-08-21T14:09:33;4.18;;;1.80;;
58466;SDS011;44255;49.244;7.726;2022-08-21T14:12:16;7.50;;;2.22;;
58466;SDS011;44255;49.244;7.726;2022-08-21T14:14:49;4.40;;;1.77;;
58466;SDS011;44255;49.244;7.726;2022-08-21T14:19:51;7.07;;;2.17;;
58466;SDS011;44255;49.244;7.726;2022-08-21T14:24:48;5.88;;;2.38;;
58466;SDS011;44255;49.244;7.726;2022-08-21T14:27:16;3.05;;;1.60;;
58466;SDS011;44255;49.244;7.726;2022-08-21T14:29:43;3.30;;;1.95;;
58466;SDS011;44255;49.244;7.726;2022-08-21T14:32:11;4.72;;;2.10;;
58466;SDS011;44255;49.244;7.726;2022-08-21T14:34:44;6.10;;;1.93;;
58466;SDS011;44255;49.244;7.726;2022-08-21T14:37:09;6.77;;;2.10;;
58466;SDS011;44255;49.244;7.726;2022-08-21T14:39:34;8.10;;;2.00;;
58466;SDS011;44255;49.244;7.726;2022-08-21T14:42:00;5.80;;;1.90;;
58466;SDS011;44255;49.244;7.726;2022-08-21T14:44:26;4.18;;;1.80;;
58466;SDS011;44255;49.244;7.726;2022-08-21T14:46:51;5.28;;;2.00;;
58466;SDS011;44255;49.244;7.726;2022-08-21T14:51:43;8.00;;;1.97;;
58466;SDS011;44255;49.244;7.726;2022-08-21T14:54:08;4.70;;;1.97;;
58466;SDS011;44255;49.244;7.726;2022-08-21T14:56:34;3.77;;;2.00;;
58466;SDS011;44255;49.244;7.726;2022-08-21T14:59:02;5.65;;;2.05;;
58466;SDS011;44255;49.244;7.726;2022-08-21T15:01:32;5.15;;;2.10;;
58466;SDS011;44255;49.244;7.726;2022-08-21T15:04:09;6.95;;;1.80;;
58466;SDS011;44255;49.244;7.726;2022-08-21T15:06:34;4.43;;;1.70;;
58466;SDS011;44255;49.244;7.726;2022-08-21T15:08:59;3.37;;;1.63;;
58466;SDS011;44255;49.244;7.726;2022-08-21T15:11:27;4.18;;;2.10;;
58466;SDS011;44255;49.244;7.726;2022-08-21T15:13:57;7.70;;;2.00;;
58466;SDS011;44255;49.244;7.726;2022-08-21T15:16:27;4.03;;;1.75;;
58466;SDS011;44255;49.244;7.726;2022-08-21T15:18:55;4.25;;;1.80;;
58466;SDS011;44255;49.244;7.726;2022-08-21T15:21:21;4.70;;;1.93;;
58466;SDS011;44255;49.244;7.726;2022-08-21T15:23:46;4.32;;;1.88;;
58466;SDS011;44255;49.244;7.726;2022-08-21T15:26:11;5.23;;;1.87;;
58466;SDS011;44255;49.244;7.726;2022-08-21T15:28:37;4.88;;;1.90;;
58466;SDS011;44255;49.244;7.726;2022-08-21T15:33:29;3.40;;;1.80;;
58466;SDS011;44255;49.244;7.726;2022-08-21T15:35:55;8.05;;;1.73;;
58466;SDS011;44255;49.244;7.726;2022-08-21T15:38:21;3.67;;;1.60;;
58466;SDS011;44255;49.244;7.726;2022-08-21T15:40:47;3.80;;;1.70;;
58466;SDS011;44255;49.244;7.726;2022-08-21T15:43:18;4.10;;;1.88;;
58466;SDS011;44255;49.244;7.726;2022-08-21T15:45:50;3.55;;;1.80;;
58466;SDS011;44255;49.244;7.726;2022-08-21T15:48:16;4.93;;;1.52;;
58466;SDS011;44255;49.244;7.726;2022-08-21T15:50:42;3.88;;;2.00;;
58466;SDS011;44255;49.244;7.726;2022-08-21T15:53:07;5.95;;;2.03;;
58466;SDS011;44255;49.244;7.726;2022-08-21T15:55:33;4.50;;;1.60;;
58466;SDS011;44255;49.244;7.726;2022-08-21T15:57:58;8.25;;;2.30;;
58466;SDS011;44255;49.244;7.726;2022-08-21T16:00:24;3.65;;;1.83;;
58466;SDS011;44255;49.244;7.726;2022-08-21T16:02:51;8.13;;;1.98;;
58466;SDS011;44255;49.244;7.726;2022-08-21T16:05:19;4.28;;;1.85;;
58466;SDS011;44255;49.244;7.726;2022-08-21T16:07:46;6.50;;;2.20;;
58466;SDS011;44255;49.244;7.726;2022-08-21T16:10:13;4.50;;;2.10;;
58466;SDS011;44255;49.244;7.726;2022-08-21T16:12:42;9.27;;;2.05;;
58466;SDS011;44255;49.244;7.726;2022-08-21T16:15:11;4.82;;;1.98;;
58466;SDS011;44255;49.244;7.726;2022-08-21T16:17:39;3.80;;;1.90;;
58466;SDS011;44255;49.244;7.726;2022-08-21T16:20:07;8.50;;;2.00;;
58466;SDS011;44255;49.244;7.726;2022-08-21T16:22:34;6.20;;;1.83;;
58466;SDS011;44255;49.244;7.726;2022-08-21T16:25:00;7.22;;;1.85;;
58466;SDS011;44255;49.244;7.726;2022-08-21T16:27:25;4.93;;;2.45;;
58466;SDS011;44255;49.244;7.726;2022-08-21T16:29:50;4.20;;;2.30;;
58466;SDS011;44255;49.244;7.726;2022-08-21T16:32:16;6.40;;;2.58;;
58466;SDS011;44255;49.244;7.726;2022-08-21T16:34:44;6.47;;;3.28;;